aviador You're here:

KMJX Decoded Metar

in _UNIDENTIFIED
Report Time2018-01-18 08:56:00
UTC Time2018-01-18 09:58:47
Flight Rules vfr VFR
Wind320° at 10 Gusting to 17 kt
W.Decomp.*RWY 06: 0.2 kt HW 10 kt LCW
W.Rank320° ranks 5
Current wind is above 320° avg. (7.6)
Visibility9999 m
Phenomena:N/A
Clouds:N/A
Expected CloudBase > 1,600 ft AGL from Temp-Dew spread
CeilingNone
Temp-8°C (ISA -23)
Dew Point-12°C (73% RH)
AAT-14.8°C
QNH1019 hPa
Density Alt-2,933 ft
Elevation82 ft
Report Wrong Elevation
Raw Report
KMJX 180856Z AUTO 32010G17KT 10SM CLR M08/M12 A3008 RMK AO2 SLP194
T10781122 56030 FZRANO=

Extra information for KMJX:More info

Metar Taf Metar & Taf Last 4 Metars F.Rules Stats Wind Profile Meteogram Temp Stats Metar ALERT Operation Metar Decoded Social comments